sensor_id;sensor_type;location;lat;lon;timestamp;temperature;humidity
73112;HTU21D;61301;51.956;5.876;2024-01-30T00:02:15;14.55;54.71
73112;HTU21D;61301;51.956;5.876;2024-01-30T00:04:41;14.51;54.80
73112;HTU21D;61301;51.956;5.876;2024-01-30T00:07:07;14.47;54.81
73112;HTU21D;61301;51.956;5.876;2024-01-30T00:09:33;14.44;54.78
73112;HTU21D;61301;51.956;5.876;2024-01-30T00:12:00;14.54;54.42
73112;HTU21D;61301;51.956;5.876;2024-01-30T00:14:26;14.48;54.51
73112;HTU21D;61301;51.956;5.876;2024-01-30T00:16:52;14.44;54.61
73112;HTU21D;61301;51.956;5.876;2024-01-30T00:19:17;14.41;54.68
73112;HTU21D;61301;51.956;5.876;2024-01-30T00:21:43;14.44;54.69
73112;HTU21D;61301;51.956;5.876;2024-01-30T00:24:09;14.42;54.63
73112;HTU21D;61301;51.956;5.876;2024-01-30T00:26:35;14.37;54.62
73112;HTU21D;61301;51.956;5.876;2024-01-30T00:29:02;14.37;54.61
73112;HTU21D;61301;51.956;5.876;2024-01-30T00:31:28;14.39;54.58
73112;HTU21D;61301;51.956;5.876;2024-01-30T00:33:54;14.36;54.57
73112;HTU21D;61301;51.956;5.876;2024-01-30T00:36:20;14.38;54.61
73112;HTU21D;61301;51.956;5.876;2024-01-30T00:38:46;14.41;54.75
73112;HTU21D;61301;51.956;5.876;2024-01-30T00:41:12;14.38;54.74
73112;HTU21D;61301;51.956;5.876;2024-01-30T00:43:38;14.35;54.81
73112;HTU21D;61301;51.956;5.876;2024-01-30T00:46:04;14.37;54.88
73112;HTU21D;61301;51.956;5.876;2024-01-30T00:48:30;14.28;55.00
73112;HTU21D;61301;51.956;5.876;2024-01-30T00:50:56;14.34;54.97
73112;HTU21D;61301;51.956;5.876;2024-01-30T00:53:22;14.35;54.97
73112;HTU21D;61301;51.956;5.876;2024-01-30T00:55:48;14.33;54.87
73112;HTU21D;61301;51.956;5.876;2024-01-30T00:58:14;14.29;54.87
73112;HTU21D;61301;51.956;5.876;2024-01-30T01:00:40;14.26;54.87
73112;HTU21D;61301;51.956;5.876;2024-01-30T01:03:06;14.26;54.82
73112;HTU21D;61301;51.956;5.876;2024-01-30T01:05:32;14.26;54.84
73112;HTU21D;61301;51.956;5.876;2024-01-30T01:07:58;14.24;54.90
73112;HTU21D;61301;51.956;5.876;2024-01-30T01:10:24;14.23;54.94
73112;HTU21D;61301;51.956;5.876;2024-01-30T01:12:50;14.23;54.96
73112;HTU21D;61301;51.956;5.876;2024-01-30T01:15:16;14.28;54.75
73112;HTU21D;61301;51.956;5.876;2024-01-30T01:17:42;14.30;54.68
73112;HTU21D;61301;51.956;5.876;2024-01-30T01:20:08;14.34;54.51
73112;HTU21D;61301;51.956;5.876;2024-01-30T01:22:36;14.29;54.52
73112;HTU21D;61301;51.956;5.876;2024-01-30T01:25:04;14.34;54.39
73112;HTU21D;61301;51.956;5.876;2024-01-30T01:27:32;14.32;54.33
73112;HTU21D;61301;51.956;5.876;2024-01-30T01:30:00;14.34;54.25
73112;HTU21D;61301;51.956;5.876;2024-01-30T01:32:26;14.33;54.20
73112;HTU21D;61301;51.956;5.876;2024-01-30T01:34:52;14.32;54.17
73112;HTU21D;61301;51.956;5.876;2024-01-30T01:37:19;14.29;54.15
73112;HTU21D;61301;51.956;5.876;2024-01-30T01:39:47;14.29;54.07
73112;HTU21D;61301;51.956;5.876;2024-01-30T01:42:13;14.25;54.16
73112;HTU21D;61301;51.956;5.876;2024-01-30T01:44:39;14.25;54.25
73112;HTU21D;61301;51.956;5.876;2024-01-30T01:47:05;14.25;54.21
73112;HTU21D;61301;51.956;5.876;2024-01-30T01:49:31;14.27;54.23
73112;HTU21D;61301;51.956;5.876;2024-01-30T01:51:58;14.27;54.14
73112;HTU21D;61301;51.956;5.876;2024-01-30T01:54:25;14.27;54.12
73112;HTU21D;61301;51.956;5.876;2024-01-30T01:56:52;14.24;54.17
73112;HTU21D;61301;51.956;5.876;2024-01-30T01:59:20;14.22;54.15
73112;HTU21D;61301;51.956;5.876;2024-01-30T02:01:46;14.20;54.23
73112;HTU21D;61301;51.956;5.876;2024-01-30T02:04:15;14.19;54.27
73112;HTU21D;61301;51.956;5.876;2024-01-30T02:06:43;14.21;54.35
73112;HTU21D;61301;51.956;5.876;2024-01-30T02:09:09;14.20;54.24
73112;HTU21D;61301;51.956;5.876;2024-01-30T02:11:35;14.24;54.17
73112;HTU21D;61301;51.956;5.876;2024-01-30T02:14:03;14.26;54.13
73112;HTU21D;61301;51.956;5.876;2024-01-30T02:16:30;14.25;54.04
73112;HTU21D;61301;51.956;5.876;2024-01-30T02:18:56;14.28;53.90
73112;HTU21D;61301;51.956;5.876;2024-01-30T02:21:22;14.28;53.91
73112;HTU21D;61301;51.956;5.876;2024-01-30T02:23:49;14.29;53.91
73112;HTU21D;61301;51.956;5.876;2024-01-30T02:26:16;14.28;53.87
73112;HTU21D;61301;51.956;5.876;2024-01-30T02:28:42;14.27;53.88
73112;HTU21D;61301;51.956;5.876;2024-01-30T02:31:08;14.25;53.88
73112;HTU21D;61301;51.956;5.876;2024-01-30T02:33:34;14.22;53.91
73112;HTU21D;61301;51.956;5.876;2024-01-30T02:36:00;14.20;53.91
73112;HTU21D;61301;51.956;5.876;2024-01-30T02:38:26;14.21;53.84
73112;HTU21D;61301;51.956;5.876;2024-01-30T02:40:52;14.20;53.75
73112;HTU21D;61301;51.956;5.876;2024-01-30T02:43:18;14.17;53.75
73112;HTU21D;61301;51.956;5.876;2024-01-30T02:45:45;14.19;53.75
73112;HTU21D;61301;51.956;5.876;2024-01-30T02:48:11;14.15;53.78
73112;HTU21D;61301;51.956;5.876;2024-01-30T02:50:37;14.17;53.73
73112;HTU21D;61301;51.956;5.876;2024-01-30T02:53:03;14.18;53.63
73112;HTU21D;61301;51.956;5.876;2024-01-30T02:55:29;14.19;53.62
73112;HTU21D;61301;51.956;5.876;2024-01-30T02:57:55;14.22;53.66
73112;HTU21D;61301;51.956;5.876;2024-01-30T03:00:21;14.23;53.59
73112;HTU21D;61301;51.956;5.876;2024-01-30T03:02:47;14.24;53.51
73112;HTU21D;61301;51.956;5.876;2024-01-30T03:05:13;14.25;53.42
73112;HTU21D;61301;51.956;5.876;2024-01-30T03:07:39;14.20;53.39
73112;HTU21D;61301;51.956;5.876;2024-01-30T03:10:05;14.21;53.42
73112;HTU21D;61301;51.956;5.876;2024-01-30T03:12:32;14.21;53.33
73112;HTU21D;61301;51.956;5.876;2024-01-30T03:14:58;14.14;53.36
73112;HTU21D;61301;51.956;5.876;2024-01-30T03:17:24;14.13;53.34
73112;HTU21D;61301;51.956;5.876;2024-01-30T03:19:50;14.09;53.33
73112;HTU21D;61301;51.956;5.876;2024-01-30T03:22:17;14.11;53.34
73112;HTU21D;61301;51.956;5.876;2024-01-30T03:24:43;14.13;53.38
73112;HTU21D;61301;51.956;5.876;2024-01-30T03:27:09;14.19;53.36
73112;HTU21D;61301;51.956;5.876;2024-01-30T03:29:35;14.22;53.27
73112;HTU21D;61301;51.956;5.876;2024-01-30T03:32:01;14.20;53.15
73112;HTU21D;61301;51.956;5.876;2024-01-30T03:34:27;14.12;53.14
73112;HTU21D;61301;51.956;5.876;2024-01-30T03:36:53;14.08;53.09
73112;HTU21D;61301;51.956;5.876;2024-01-30T03:39:19;14.07;53.20
73112;HTU21D;61301;51.956;5.876;2024-01-30T03:41:45;14.09;53.22
73112;HTU21D;61301;51.956;5.876;2024-01-30T03:44:11;14.08;53.12
73112;HTU21D;61301;51.956;5.876;2024-01-30T03:46:37;14.01;53.04
73112;HTU21D;61301;51.956;5.876;2024-01-30T03:49:03;13.95;53.04
73112;HTU21D;61301;51.956;5.876;2024-01-30T03:51:29;13.89;53.04
73112;HTU21D;61301;51.956;5.876;2024-01-30T03:53:55;13.82;52.96
73112;HTU21D;61301;51.956;5.876;2024-01-30T03:56:21;13.78;53.14
73112;HTU21D;61301;51.956;5.876;2024-01-30T03:58:47;13.77;53.20
73112;HTU21D;61301;51.956;5.876;2024-01-30T04:01:14;13.79;53.24
73112;HTU21D;61301;51.956;5.876;2024-01-30T04:03:41;13.78;53.18
73112;HTU21D;61301;51.956;5.876;2024-01-30T04:06:07;13.78;53.20
73112;HTU21D;61301;51.956;5.876;2024-01-30T04:08:34;13.82;53.20
73112;HTU21D;61301;51.956;5.876;2024-01-30T04:11:06;13.90;53.27
73112;HTU21D;61301;51.956;5.876;2024-01-30T04:13:33;13.97;53.31
73112;HTU21D;61301;51.956;5.876;2024-01-30T04:15:59;13.99;53.14
73112;HTU21D;61301;51.956;5.876;2024-01-30T04:18:29;13.94;52.97
73112;HTU21D;61301;51.956;5.876;2024-01-30T04:20:55;13.86;52.86
73112;HTU21D;61301;51.956;5.876;2024-01-30T04:23:21;13.86;53.10
73112;HTU21D;61301;51.956;5.876;2024-01-30T04:25:47;13.84;52.93
73112;HTU21D;61301;51.956;5.876;2024-01-30T04:28:13;13.81;52.86
73112;HTU21D;61301;51.956;5.876;2024-01-30T04:30:42;13.76;52.80
73112;HTU21D;61301;51.956;5.876;2024-01-30T04:33:08;13.71;52.84
73112;HTU21D;61301;51.956;5.876;2024-01-30T04:35:34;13.69;52.94
73112;HTU21D;61301;51.956;5.876;2024-01-30T04:38:01;13.64;53.23
73112;HTU21D;61301;51.956;5.876;2024-01-30T04:40:27;13.65;53.30
73112;HTU21D;61301;51.956;5.876;2024-01-30T04:42:53;13.66;53.48
73112;HTU21D;61301;51.956;5.876;2024-01-30T04:45:19;13.69;53.84
73112;HTU21D;61301;51.956;5.876;2024-01-30T04:47:45;13.73;54.13
73112;HTU21D;61301;51.956;5.876;2024-01-30T04:50:11;13.76;54.15
73112;HTU21D;61301;51.956;5.876;2024-01-30T04:52:37;13.88;54.45
73112;HTU21D;61301;51.956;5.876;2024-01-30T04:55:04;13.92;54.63
73112;HTU21D;61301;51.956;5.876;2024-01-30T04:57:30;13.96;54.59
73112;HTU21D;61301;51.956;5.876;2024-01-30T04:59:57;13.96;54.59
73112;HTU21D;61301;51.956;5.876;2024-01-30T05:02:23;14.01;54.70
73112;HTU21D;61301;51.956;5.876;2024-01-30T05:04:49;14.07;54.75
73112;HTU21D;61301;51.956;5.876;2024-01-30T05:07:15;14.13;54.59
73112;HTU21D;61301;51.956;5.876;2024-01-30T05:09:41;14.18;54.59
73112;HTU21D;61301;51.956;5.876;2024-01-30T05:12:07;14.22;54.53
73112;HTU21D;61301;51.956;5.876;2024-01-30T05:14:33;14.22;54.55
73112;HTU21D;61301;51.956;5.876;2024-01-30T05:16:59;14.22;54.51
73112;HTU21D;61301;51.956;5.876;2024-01-30T05:19:25;14.24;54.42
73112;HTU21D;61301;51.956;5.876;2024-01-30T05:21:51;14.23;54.46
73112;HTU21D;61301;51.956;5.876;2024-01-30T05:24:17;14.27;54.42
73112;HTU21D;61301;51.956;5.876;2024-01-30T05:26:44;14.29;54.42
73112;HTU21D;61301;51.956;5.876;2024-01-30T05:29:10;14.27;54.56
73112;HTU21D;61301;51.956;5.876;2024-01-30T05:31:36;14.25;54.72
73112;HTU21D;61301;51.956;5.876;2024-01-30T05:34:02;14.30;54.68
73112;HTU21D;61301;51.956;5.876;2024-01-30T05:36:28;14.35;54.71
73112;HTU21D;61301;51.956;5.876;2024-01-30T05:38:55;14.39;54.62
73112;HTU21D;61301;51.956;5.876;2024-01-30T05:41:21;14.38;54.62
73112;HTU21D;61301;51.956;5.876;2024-01-30T05:43:47;14.38;54.59
73112;HTU21D;61301;51.956;5.876;2024-01-30T05:46:13;14.48;54.43
73112;HTU21D;61301;51.956;5.876;2024-01-30T05:48:39;14.54;54.23
73112;HTU21D;61301;51.956;5.876;2024-01-30T05:51:07;14.52;54.39
73112;HTU21D;61301;51.956;5.876;2024-01-30T05:53:33;14.52;54.40
73112;HTU21D;61301;51.956;5.876;2024-01-30T05:56:01;14.51;54.43
73112;HTU21D;61301;51.956;5.876;2024-01-30T05:58:27;14.51;54.46
73112;HTU21D;61301;51.956;5.876;2024-01-30T06:00:53;14.53;54.46
73112;HTU21D;61301;51.956;5.876;2024-01-30T06:03:20;14.53;54.38
73112;HTU21D;61301;51.956;5.876;2024-01-30T06:05:46;14.55;54.35
73112;HTU21D;61301;51.956;5.876;2024-01-30T06:08:12;14.52;54.46
73112;HTU21D;61301;51.956;5.876;2024-01-30T06:10:38;14.53;54.43
73112;HTU21D;61301;51.956;5.876;2024-01-30T06:13:05;14.49;54.54
73112;HTU21D;61301;51.956;5.876;2024-01-30T06:15:31;14.48;54.59
73112;HTU21D;61301;51.956;5.876;2024-01-30T06:17:58;14.52;54.49
73112;HTU21D;61301;51.956;5.876;2024-01-30T06:20:25;14.55;54.39
73112;HTU21D;61301;51.956;5.876;2024-01-30T06:22:51;14.57;54.37
73112;HTU21D;61301;51.956;5.876;2024-01-30T06:25:17;14.60;54.43
73112;HTU21D;61301;51.956;5.876;2024-01-30T06:27:43;14.64;54.37
73112;HTU21D;61301;51.956;5.876;2024-01-30T06:30:09;14.68;54.39
73112;HTU21D;61301;51.956;5.876;2024-01-30T06:32:36;14.69;54.33
73112;HTU21D;61301;51.956;5.876;2024-01-30T06:35:02;14.68;54.41
73112;HTU21D;61301;51.956;5.876;2024-01-30T06:37:28;14.73;54.35
73112;HTU21D;61301;51.956;5.876;2024-01-30T06:39:54;14.72;54.36
73112;HTU21D;61301;51.956;5.876;2024-01-30T06:42:20;14.70;54.43
73112;HTU21D;61301;51.956;5.876;2024-01-30T06:44:46;14.73;54.40
73112;HTU21D;61301;51.956;5.876;2024-01-30T06:47:12;14.79;54.30
73112;HTU21D;61301;51.956;5.876;2024-01-30T06:49:38;14.85;54.15
73112;HTU21D;61301;51.956;5.876;2024-01-30T06:52:08;14.87;54.13
73112;HTU21D;61301;51.956;5.876;2024-01-30T06:54:34;14.87;54.10
73112;HTU21D;61301;51.956;5.876;2024-01-30T06:57:00;14.92;53.98
73112;HTU21D;61301;51.956;5.876;2024-01-30T06:59:26;14.93;54.00
73112;HTU21D;61301;51.956;5.876;2024-01-30T07:01:52;14.94;53.94
73112;HTU21D;61301;51.956;5.876;2024-01-30T07:04:18;14.93;54.01
73112;HTU21D;61301;51.956;5.876;2024-01-30T07:06:44;14.95;54.01
73112;HTU21D;61301;51.956;5.876;2024-01-30T07:09:10;14.86;54.30
73112;HTU21D;61301;51.956;5.876;2024-01-30T07:11:36;14.86;54.52
73112;HTU21D;61301;51.956;5.876;2024-01-30T07:14:02;14.84;54.78
73112;HTU21D;61301;51.956;5.876;2024-01-30T07:16:31;14.86;54.81
73112;HTU21D;61301;51.956;5.876;2024-01-30T07:18:57;14.86;55.06
73112;HTU21D;61301;51.956;5.876;2024-01-30T07:21:23;14.84;55.09
73112;HTU21D;61301;51.956;5.876;2024-01-30T07:23:54;14.85;55.17
73112;HTU21D;61301;51.956;5.876;2024-01-30T07:26:21;14.86;55.15
73112;HTU21D;61301;51.956;5.876;2024-01-30T07:28:47;14.87;55.12
73112;HTU21D;61301;51.956;5.876;2024-01-30T07:31:13;14.86;55.16
73112;HTU21D;61301;51.956;5.876;2024-01-30T07:33:39;14.92;55.07
73112;HTU21D;61301;51.956;5.876;2024-01-30T07:36:05;14.92;55.14
73112;HTU21D;61301;51.956;5.876;2024-01-30T07:38:32;14.92;55.17
73112;HTU21D;61301;51.956;5.876;2024-01-30T07:40:58;14.95;55.10
73112;HTU21D;61301;51.956;5.876;2024-01-30T07:43:24;14.99;55.01
73112;HTU21D;61301;51.956;5.876;2024-01-30T07:45:50;15.03;54.89
73112;HTU21D;61301;51.956;5.876;2024-01-30T07:48:16;15.06;54.96
73112;HTU21D;61301;51.956;5.876;2024-01-30T07:50:42;15.08;54.97
73112;HTU21D;61301;51.956;5.876;2024-01-30T07:53:08;15.12;54.84
73112;HTU21D;61301;51.956;5.876;2024-01-30T07:55:34;15.09;54.95
73112;HTU21D;61301;51.956;5.876;2024-01-30T07:58:01;15.09;54.97
73112;HTU21D;61301;51.956;5.876;2024-01-30T08:00:27;15.08;55.17
73112;HTU21D;61301;51.956;5.876;2024-01-30T08:02:55;15.26;54.71
73112;HTU21D;61301;51.956;5.876;2024-01-30T08:05:21;15.36;54.43
73112;HTU21D;61301;51.956;5.876;2024-01-30T08:07:50;15.36;54.45
73112;HTU21D;61301;51.956;5.876;2024-01-30T08:10:16;15.36;54.51
73112;HTU21D;61301;51.956;5.876;2024-01-30T08:12:44;15.40;54.46
73112;HTU21D;61301;51.956;5.876;2024-01-30T08:15:11;15.41;54.53
73112;HTU21D;61301;51.956;5.876;2024-01-30T08:17:38;15.43;54.49
73112;HTU21D;61301;51.956;5.876;2024-01-30T08:20:04;15.41;54.50
73112;HTU21D;61301;51.956;5.876;2024-01-30T08:22:31;15.45;54.44
73112;HTU21D;61301;51.956;5.876;2024-01-30T08:24:57;15.45;54.40
73112;HTU21D;61301;51.956;5.876;2024-01-30T08:27:23;15.46;54.41
73112;HTU21D;61301;51.956;5.876;2024-01-30T08:29:49;15.41;54.56
73112;HTU21D;61301;51.956;5.876;2024-01-30T08:32:16;15.43;54.61
73112;HTU21D;61301;51.956;5.876;2024-01-30T08:34:42;15.47;54.57
73112;HTU21D;61301;51.956;5.876;2024-01-30T08:37:08;15.45;54.66
73112;HTU21D;61301;51.956;5.876;2024-01-30T08:39:34;15.49;54.68
73112;HTU21D;61301;51.956;5.876;2024-01-30T08:42:00;15.55;54.56
73112;HTU21D;61301;51.956;5.876;2024-01-30T08:44:26;15.55;54.62
73112;HTU21D;61301;51.956;5.876;2024-01-30T08:46:53;15.60;54.51
73112;HTU21D;61301;51.956;5.876;2024-01-30T08:49:20;15.59;54.52
73112;HTU21D;61301;51.956;5.876;2024-01-30T08:51:46;15.63;54.46
73112;HTU21D;61301;51.956;5.876;2024-01-30T08:54:13;15.65;54.44
73112;HTU21D;61301;51.956;5.876;2024-01-30T08:56:39;15.67;54.39
73112;HTU21D;61301;51.956;5.876;2024-01-30T08:59:05;15.68;54.41
73112;HTU21D;61301;51.956;5.876;2024-01-30T09:01:31;15.70;54.42
73112;HTU21D;61301;51.956;5.876;2024-01-30T09:03:57;15.75;54.27
73112;HTU21D;61301;51.956;5.876;2024-01-30T09:06:23;15.75;54.23
73112;HTU21D;61301;51.956;5.876;2024-01-30T09:08:50;15.71;54.44
73112;HTU21D;61301;51.956;5.876;2024-01-30T09:11:16;15.69;54.58
73112;HTU21D;61301;51.956;5.876;2024-01-30T09:13:42;15.71;54.57
73112;HTU21D;61301;51.956;5.876;2024-01-30T09:16:09;15.58;55.04
73112;HTU21D;61301;51.956;5.876;2024-01-30T09:18:35;15.57;55.10
73112;HTU21D;61301;51.956;5.876;2024-01-30T09:21:01;15.56;55.16
73112;HTU21D;61301;51.956;5.876;2024-01-30T09:23:27;15.56;55.20
73112;HTU21D;61301;51.956;5.876;2024-01-30T09:25:53;15.60;55.15
73112;HTU21D;61301;51.956;5.876;2024-01-30T09:28:19;15.62;55.16
73112;HTU21D;61301;51.956;5.876;2024-01-30T09:30:45;15.65;55.13
73112;HTU21D;61301;51.956;5.876;2024-01-30T09:33:11;15.63;55.24
73112;HTU21D;61301;51.956;5.876;2024-01-30T09:35:37;15.65;55.34
73112;HTU21D;61301;51.956;5.876;2024-01-30T09:38:03;15.68;55.29
73112;HTU21D;61301;51.956;5.876;2024-01-30T09:40:29;15.70;55.32
73112;HTU21D;61301;51.956;5.876;2024-01-30T09:42:56;15.68;55.45
73112;HTU21D;61301;51.956;5.876;2024-01-30T09:45:26;15.72;55.51
73112;HTU21D;61301;51.956;5.876;2024-01-30T09:47:52;15.75;55.47
73112;HTU21D;61301;51.956;5.876;2024-01-30T09:50:19;15.77;55.55
73112;HTU21D;61301;51.956;5.876;2024-01-30T09:52:47;15.77;55.74
73112;HTU21D;61301;51.956;5.876;2024-01-30T09:55:13;15.78;55.76
73112;HTU21D;61301;51.956;5.876;2024-01-30T09:57:41;15.82;55.71
73112;HTU21D;61301;51.956;5.876;2024-01-30T10:00:08;15.86;55.67
73112;HTU21D;61301;51.956;5.876;2024-01-30T10:02:40;15.90;55.65
73112;HTU21D;61301;51.956;5.876;2024-01-30T10:05:08;15.95;55.52
73112;HTU21D;61301;51.956;5.876;2024-01-30T10:07:34;15.91;55.69
73112;HTU21D;61301;51.956;5.876;2024-01-30T10:10:00;16.02;55.56
73112;HTU21D;61301;51.956;5.876;2024-01-30T10:12:26;16.10;55.44
73112;HTU21D;61301;51.956;5.876;2024-01-30T10:14:52;16.15;55.36
73112;HTU21D;61301;51.956;5.876;2024-01-30T10:17:19;16.19;55.35
73112;HTU21D;61301;51.956;5.876;2024-01-30T10:19:47;16.19;55.46
73112;HTU21D;61301;51.956;5.876;2024-01-30T10:22:13;16.20;55.50
73112;HTU21D;61301;51.956;5.876;2024-01-30T10:24:39;16.22;55.51
73112;HTU21D;61301;51.956;5.876;2024-01-30T10:27:05;16.26;55.49
73112;HTU21D;61301;51.956;5.876;2024-01-30T10:29:31;16.26;55.54
73112;HTU21D;61301;51.956;5.876;2024-01-30T10:32:02;16.32;55.57
73112;HTU21D;61301;51.956;5.876;2024-01-30T10:34:28;16.28;55.67
73112;HTU21D;61301;51.956;5.876;2024-01-30T10:37:08;16.29;55.81
73112;HTU21D;61301;51.956;5.876;2024-01-30T10:39:45;16.35;55.65
73112;HTU21D;61301;51.956;5.876;2024-01-30T10:42:13;16.39;55.59
73112;HTU21D;61301;51.956;5.876;2024-01-30T10:47:26;16.45;55.53
73112;HTU21D;61301;51.956;5.876;2024-01-30T10:49:54;16.50;55.36
73112;HTU21D;61301;51.956;5.876;2024-01-30T10:52:22;16.54;55.26
73112;HTU21D;61301;51.956;5.876;2024-01-30T10:54:50;16.61;55.16
73112;HTU21D;61301;51.956;5.876;2024-01-30T10:57:17;16.63;55.19
73112;HTU21D;61301;51.956;5.876;2024-01-30T10:59:43;16.65;55.26
73112;HTU21D;61301;51.956;5.876;2024-01-30T11:02:10;16.66;55.26
73112;HTU21D;61301;51.956;5.876;2024-01-30T11:04:37;16.64;55.39
73112;HTU21D;61301;51.956;5.876;2024-01-30T11:07:25;16.71;55.33
73112;HTU21D;61301;51.956;5.876;2024-01-30T11:12:25;16.74;55.34
73112;HTU21D;61301;51.956;5.876;2024-01-30T11:15:04;16.78;55.41
73112;HTU21D;61301;51.956;5.876;2024-01-30T11:20:20;16.78;55.28
73112;HTU21D;61301;51.956;5.876;2024-01-30T11:22:47;16.89;55.18
73112;HTU21D;61301;51.956;5.876;2024-01-30T11:25:15;16.92;54.85
73112;HTU21D;61301;51.956;5.876;2024-01-30T11:27:42;16.98;54.57
73112;HTU21D;61301;51.956;5.876;2024-01-30T11:30:09;17.01;54.52
73112;HTU21D;61301;51.956;5.876;2024-01-30T11:32:35;17.04;54.32
73112;HTU21D;61301;51.956;5.876;2024-01-30T11:35:05;17.05;54.09
73112;HTU21D;61301;51.956;5.876;2024-01-30T11:37:37;17.08;54.10
73112;HTU21D;61301;51.956;5.876;2024-01-30T11:40:06;17.07;54.01
73112;HTU21D;61301;51.956;5.876;2024-01-30T11:42:34;17.09;53.84
73112;HTU21D;61301;51.956;5.876;2024-01-30T11:45:02;17.00;53.60
73112;HTU21D;61301;51.956;5.876;2024-01-30T11:47:29;17.10;53.41
73112;HTU21D;61301;51.956;5.876;2024-01-30T11:49:55;17.24;53.40
73112;HTU21D;61301;51.956;5.876;2024-01-30T11:52:22;17.31;52.99
73112;HTU21D;61301;51.956;5.876;2024-01-30T11:54:48;17.37;52.93
73112;HTU21D;61301;51.956;5.876;2024-01-30T11:57:14;17.37;52.82
73112;HTU21D;61301;51.956;5.876;2024-01-30T11:59:40;17.34;52.87
73112;HTU21D;61301;51.956;5.876;2024-01-30T12:02:06;17.50;52.53
73112;HTU21D;61301;51.956;5.876;2024-01-30T12:04:32;17.48;52.10
73112;HTU21D;61301;51.956;5.876;2024-01-30T12:06:58;17.39;52.52
73112;HTU21D;61301;51.956;5.876;2024-01-30T12:09:24;17.32;52.82
73112;HTU21D;61301;51.956;5.876;2024-01-30T12:11:50;17.41;52.44
73112;HTU21D;61301;51.956;5.876;2024-01-30T12:14:17;17.35;52.68
73112;HTU21D;61301;51.956;5.876;2024-01-30T12:16:43;17.31;52.76
73112;HTU21D;61301;51.956;5.876;2024-01-30T12:19:09;17.33;52.70
73112;HTU21D;61301;51.956;5.876;2024-01-30T12:21:35;17.37;52.77
73112;HTU21D;61301;51.956;5.876;2024-01-30T12:24:01;17.39;52.65
73112;HTU21D;61301;51.956;5.876;2024-01-30T12:26:28;17.39;52.49
73112;HTU21D;61301;51.956;5.876;2024-01-30T12:28:55;17.30;52.15
73112;HTU21D;61301;51.956;5.876;2024-01-30T12:31:28;17.31;51.22
73112;HTU21D;61301;51.956;5.876;2024-01-30T12:33:54;17.19;50.64
73112;HTU21D;61301;51.956;5.876;2024-01-30T12:36:21;17.26;50.34
73112;HTU21D;61301;51.956;5.876;2024-01-30T12:38:48;17.43;50.06
73112;HTU21D;61301;51.956;5.876;2024-01-30T12:41:14;17.48;50.32
73112;HTU21D;61301;51.956;5.876;2024-01-30T12:43:40;17.36;50.40
73112;HTU21D;61301;51.956;5.876;2024-01-30T12:46:06;17.39;50.85
73112;HTU21D;61301;51.956;5.876;2024-01-30T12:48:33;17.23;50.82
73112;HTU21D;61301;51.956;5.876;2024-01-30T12:50:59;17.08;51.20
73112;HTU21D;61301;51.956;5.876;2024-01-30T12:53:25;17.04;51.51
73112;HTU21D;61301;51.956;5.876;2024-01-30T12:55:51;16.90;51.46
73112;HTU21D;61301;51.956;5.876;2024-01-30T12:58:17;16.84;51.77
73112;HTU21D;61301;51.956;5.876;2024-01-30T13:00:43;16.85;51.61
73112;HTU21D;61301;51.956;5.876;2024-01-30T13:03:11;16.91;51.71
73112;HTU21D;61301;51.956;5.876;2024-01-30T13:05:37;16.84;51.24
73112;HTU21D;61301;51.956;5.876;2024-01-30T13:08:03;16.89;51.35
73112;HTU21D;61301;51.956;5.876;2024-01-30T13:10:29;16.91;50.86
73112;HTU21D;61301;51.956;5.876;2024-01-30T13:12:55;16.92;51.40
73112;HTU21D;61301;51.956;5.876;2024-01-30T13:15:21;16.94;50.81
73112;HTU21D;61301;51.956;5.876;2024-01-30T13:17:49;16.89;50.84
73112;HTU21D;61301;51.956;5.876;2024-01-30T13:20:15;16.85;50.53
73112;HTU21D;61301;51.956;5.876;2024-01-30T13:22:47;16.79;50.39
73112;HTU21D;61301;51.956;5.876;2024-01-30T13:25:15;16.66;49.70
73112;HTU21D;61301;51.956;5.876;2024-01-30T13:27:41;16.66;48.72
73112;HTU21D;61301;51.956;5.876;2024-01-30T13:30:07;16.69;49.27
73112;HTU21D;61301;51.956;5.876;2024-01-30T13:32:37;16.70;48.50
73112;HTU21D;61301;51.956;5.876;2024-01-30T13:35:03;16.69;48.38
73112;HTU21D;61301;51.956;5.876;2024-01-30T13:37:29;16.70;47.86
73112;HTU21D;61301;51.956;5.876;2024-01-30T13:39:55;16.78;47.75
73112;HTU21D;61301;51.956;5.876;2024-01-30T13:42:22;16.64;46.53
73112;HTU21D;61301;51.956;5.876;2024-01-30T13:44:49;16.50;46.68
73112;HTU21D;61301;51.956;5.876;2024-01-30T13:47:15;16.44;47.18
73112;HTU21D;61301;51.956;5.876;2024-01-30T13:49:41;16.33;48.30
73112;HTU21D;61301;51.956;5.876;2024-01-30T13:52:07;16.29;49.00
73112;HTU21D;61301;51.956;5.876;2024-01-30T13:54:34;16.15;49.84
73112;HTU21D;61301;51.956;5.876;2024-01-30T13:57:00;16.08;50.79
73112;HTU21D;61301;51.956;5.876;2024-01-30T13:59:26;15.88;51.08
73112;HTU21D;61301;51.956;5.876;2024-01-30T14:01:52;15.65;51.69
73112;HTU21D;61301;51.956;5.876;2024-01-30T14:04:18;15.39;52.29
73112;HTU21D;61301;51.956;5.876;2024-01-30T14:06:44;15.31;52.72
73112;HTU21D;61301;51.956;5.876;2024-01-30T14:09:10;15.32;52.83
73112;HTU21D;61301;51.956;5.876;2024-01-30T14:11:36;15.33;53.01
73112;HTU21D;61301;51.956;5.876;2024-01-30T14:14:02;15.36;53.07
73112;HTU21D;61301;51.956;5.876;2024-01-30T14:16:28;15.23;53.00
73112;HTU21D;61301;51.956;5.876;2024-01-30T14:18:55;15.23;53.08
73112;HTU21D;61301;51.956;5.876;2024-01-30T14:21:21;15.17;53.10
73112;HTU21D;61301;51.956;5.876;2024-01-30T14:23:47;15.13;53.26
73112;HTU21D;61301;51.956;5.876;2024-01-30T14:26:13;15.15;53.31
73112;HTU21D;61301;51.956;5.876;2024-01-30T14:28:39;15.11;53.46
73112;HTU21D;61301;51.956;5.876;2024-01-30T14:31:05;15.02;53.59
73112;HTU21D;61301;51.956;5.876;2024-01-30T14:33:31;14.95;53.75
73112;HTU21D;61301;51.956;5.876;2024-01-30T14:35:58;14.88;53.88
73112;HTU21D;61301;51.956;5.876;2024-01-30T14:38:24;14.99;53.70
73112;HTU21D;61301;51.956;5.876;2024-01-30T14:40:51;14.95;54.04
73112;HTU21D;61301;51.956;5.876;2024-01-30T14:43:17;15.01;53.70
73112;HTU21D;61301;51.956;5.876;2024-01-30T14:45:43;14.89;53.95
73112;HTU21D;61301;51.956;5.876;2024-01-30T14:48:11;14.96;54.02
73112;HTU21D;61301;51.956;5.876;2024-01-30T14:50:37;14.97;53.81
73112;HTU21D;61301;51.956;5.876;2024-01-30T14:53:03;14.94;53.84
73112;HTU21D;61301;51.956;5.876;2024-01-30T14:55:29;14.88;54.15
73112;HTU21D;61301;51.956;5.876;2024-01-30T14:57:55;14.92;54.10
73112;HTU21D;61301;51.956;5.876;2024-01-30T15:00:22;14.78;54.35
73112;HTU21D;61301;51.956;5.876;2024-01-30T15:02:48;14.82;54.55
73112;HTU21D;61301;51.956;5.876;2024-01-30T15:05:14;14.80;54.55
73112;HTU21D;61301;51.956;5.876;2024-01-30T15:07:40;14.84;54.53
73112;HTU21D;61301;51.956;5.876;2024-01-30T15:10:07;14.84;54.41
73112;HTU21D;61301;51.956;5.876;2024-01-30T15:12:34;14.77;54.55
73112;HTU21D;61301;51.956;5.876;2024-01-30T15:15:00;14.71;54.68
73112;HTU21D;61301;51.956;5.876;2024-01-30T15:17:26;14.65;54.86
73112;HTU21D;61301;51.956;5.876;2024-01-30T15:19:52;14.67;54.83